sensor_id;sensor_type;location;lat;lon;timestamp;pressure;altitude;pressure_sealevel;temperature;humidity
66385;BME280;53426;55.872;37.462;2023-02-12T00:01:02;97784.09;;;-0.20;76.79
66385;BME280;53426;55.872;37.462;2023-02-12T00:03:29;97787.63;;;-0.21;77.02
66385;BME280;53426;55.872;37.462;2023-02-12T00:05:59;97808.13;;;-0.29;76.54
66385;BME280;53426;55.872;37.462;2023-02-12T00:08:25;97818.63;;;-0.30;76.36
66385;BME280;53426;55.872;37.462;2023-02-12T00:10:51;97812.50;;;-0.29;76.41
66385;BME280;53426;55.872;37.462;2023-02-12T00:13:17;97831.84;;;-0.33;76.34
66385;BME280;53426;55.872;37.462;2023-02-12T00:15:42;97833.38;;;-0.44;76.74
66385;BME280;53426;55.872;37.462;2023-02-12T00:18:09;97838.06;;;-0.49;77.07
66385;BME280;53426;55.872;37.462;2023-02-12T00:20:37;97858.31;;;-0.54;77.16
66385;BME280;53426;55.872;37.462;2023-02-12T00:23:04;97855.94;;;-0.57;77.05
66385;BME280;53426;55.872;37.462;2023-02-12T00:25:30;97865.72;;;-0.60;77.16
66385;BME280;53426;55.872;37.462;2023-02-12T00:27:57;97860.03;;;-0.79;76.70
66385;BME280;53426;55.872;37.462;2023-02-12T00:30:25;97868.53;;;-0.90;76.55
66385;BME280;53426;55.872;37.462;2023-02-12T00:32:54;97888.38;;;-0.89;76.78
66385;BME280;53426;55.872;37.462;2023-02-12T00:35:20;97892.50;;;-0.99;76.94
66385;BME280;53426;55.872;37.462;2023-02-12T00:37:49;97901.31;;;-1.02;77.20
66385;BME280;53426;55.872;37.462;2023-02-12T00:40:16;97907.13;;;-0.98;77.17
66385;BME280;53426;55.872;37.462;2023-02-12T00:42:43;97918.41;;;-1.12;77.20
66385;BME280;53426;55.872;37.462;2023-02-12T00:45:10;97907.56;;;-1.18;77.67
66385;BME280;53426;55.872;37.462;2023-02-12T00:47:36;97927.16;;;-1.27;77.12
66385;BME280;53426;55.872;37.462;2023-02-12T00:50:04;97926.13;;;-1.24;77.18
66385;BME280;53426;55.872;37.462;2023-02-12T00:52:30;97940.22;;;-1.29;76.90
66385;BME280;53426;55.872;37.462;2023-02-12T00:54:55;97946.06;;;-1.25;76.94
66385;BME280;53426;55.872;37.462;2023-02-12T00:57:22;97945.13;;;-1.24;76.39
66385;BME280;53426;55.872;37.462;2023-02-12T00:59:49;97948.00;;;-1.29;76.18
66385;BME280;53426;55.872;37.462;2023-02-12T01:02:17;97957.66;;;-1.31;76.09
66385;BME280;53426;55.872;37.462;2023-02-12T01:04:43;97966.75;;;-1.38;75.97
66385;BME280;53426;55.872;37.462;2023-02-12T01:07:10;97975.84;;;-1.45;76.32
66385;BME280;53426;55.872;37.462;2023-02-12T01:09:38;97986.78;;;-1.40;76.01
66385;BME280;53426;55.872;37.462;2023-02-12T01:12:07;97987.41;;;-1.36;76.18
66385;BME280;53426;55.872;37.462;2023-02-12T01:14:33;98006.72;;;-1.40;76.63
66385;BME280;53426;55.872;37.462;2023-02-12T01:16:59;98018.31;;;-1.32;76.63
66385;BME280;53426;55.872;37.462;2023-02-12T01:19:25;98024.78;;;-1.39;76.21
66385;BME280;53426;55.872;37.462;2023-02-12T01:21:52;98023.56;;;-1.47;75.99
66385;BME280;53426;55.872;37.462;2023-02-12T01:24:18;98042.84;;;-1.51;76.43
66385;BME280;53426;55.872;37.462;2023-02-12T01:26:43;98048.59;;;-1.46;75.90
66385;BME280;53426;55.872;37.462;2023-02-12T01:29:10;98030.22;;;-1.57;76.17
66385;BME280;53426;55.872;37.462;2023-02-12T01:31:37;98061.50;;;-1.45;76.34
66385;BME280;53426;55.872;37.462;2023-02-12T01:34:05;98071.97;;;-1.46;76.02
66385;BME280;53426;55.872;37.462;2023-02-12T01:36:34;98068.91;;;-1.53;75.93
66385;BME280;53426;55.872;37.462;2023-02-12T01:39:13;98075.88;;;-1.53;76.12
66385;BME280;53426;55.872;37.462;2023-02-12T01:41:43;98087.81;;;-1.51;75.99
66385;BME280;53426;55.872;37.462;2023-02-12T01:44:18;98101.72;;;-1.52;75.68
66385;BME280;53426;55.872;37.462;2023-02-12T01:46:47;98097.63;;;-1.56;75.83
66385;BME280;53426;55.872;37.462;2023-02-12T01:49:44;98100.97;;;-1.54;76.07
66385;BME280;53426;55.872;37.462;2023-02-12T01:52:16;98104.84;;;-1.61;76.16
66385;BME280;53426;55.872;37.462;2023-02-12T01:54:47;98122.16;;;-1.61;75.91
66385;BME280;53426;55.872;37.462;2023-02-12T01:57:16;98134.38;;;-1.63;76.23
66385;BME280;53426;55.872;37.462;2023-02-12T01:59:44;98127.78;;;-1.69;76.41
66385;BME280;53426;55.872;37.462;2023-02-12T02:02:11;98134.19;;;-1.75;76.52
66385;BME280;53426;55.872;37.462;2023-02-12T02:04:47;98143.34;;;-1.69;76.53
66385;BME280;53426;55.872;37.462;2023-02-12T02:07:14;98141.28;;;-1.78;75.82
66385;BME280;53426;55.872;37.462;2023-02-12T02:09:40;98144.06;;;-1.81;76.09
66385;BME280;53426;55.872;37.462;2023-02-12T02:12:06;98146.31;;;-1.91;76.15
66385;BME280;53426;55.872;37.462;2023-02-12T02:14:59;98167.00;;;-1.89;76.05
66385;BME280;53426;55.872;37.462;2023-02-12T02:31:25;98204.41;;;-1.93;75.64
66385;BME280;53426;55.872;37.462;2023-02-12T02:33:57;98201.56;;;-2.04;75.60
66385;BME280;53426;55.872;37.462;2023-02-12T02:36:45;98230.94;;;-2.04;76.07
66385;BME280;53426;55.872;37.462;2023-02-12T02:39:24;98224.91;;;-2.04;76.72
66385;BME280;53426;55.872;37.462;2023-02-12T02:42:22;98260.03;;;-2.15;76.44
66385;BME280;53426;55.872;37.462;2023-02-12T02:44:53;98252.50;;;-2.19;76.76
66385;BME280;53426;55.872;37.462;2023-02-12T02:47:51;98266.72;;;-2.11;76.73
66385;BME280;53426;55.872;37.462;2023-02-12T02:50:26;98262.78;;;-2.18;76.35
66385;BME280;53426;55.872;37.462;2023-02-12T02:53:04;98261.59;;;-2.12;76.73
66385;BME280;53426;55.872;37.462;2023-02-12T02:55:39;98276.78;;;-2.04;76.50
66385;BME280;53426;55.872;37.462;2023-02-12T02:58:16;98282.28;;;-2.11;76.19
66385;BME280;53426;55.872;37.462;2023-02-12T03:01:05;98299.34;;;-2.06;76.22
66385;BME280;53426;55.872;37.462;2023-02-12T03:06:10;98307.53;;;-2.14;76.39
66385;BME280;53426;55.872;37.462;2023-02-12T03:08:46;98315.56;;;-2.19;76.42
66385;BME280;53426;55.872;37.462;2023-02-12T03:11:27;98311.06;;;-2.15;76.70
66385;BME280;53426;55.872;37.462;2023-02-12T03:14:15;98322.41;;;-2.18;76.34
66385;BME280;53426;55.872;37.462;2023-02-12T03:16:57;98315.78;;;-2.23;76.49
66385;BME280;53426;55.872;37.462;2023-02-12T03:19:28;98339.97;;;-2.40;76.47
66385;BME280;53426;55.872;37.462;2023-02-12T03:21:59;98352.03;;;-2.39;76.06
66385;BME280;53426;55.872;37.462;2023-02-12T03:24:45;98359.91;;;-2.40;75.74
66385;BME280;53426;55.872;37.462;2023-02-12T03:27:26;98359.81;;;-2.39;76.17
66385;BME280;53426;55.872;37.462;2023-02-12T03:29:54;98352.66;;;-2.51;75.74
66385;BME280;53426;55.872;37.462;2023-02-12T03:35:14;98376.00;;;-2.51;75.93
66385;BME280;53426;55.872;37.462;2023-02-12T03:43:22;98378.34;;;-2.46;75.39
66385;BME280;53426;55.872;37.462;2023-02-12T03:45:54;98388.31;;;-2.56;74.84
66385;BME280;53426;55.872;37.462;2023-02-12T03:49:45;98399.94;;;-2.46;74.55
66385;BME280;53426;55.872;37.462;2023-02-12T03:51:40;98388.31;;;-2.56;73.81
66385;BME280;53426;55.872;37.462;2023-02-12T03:54:08;98383.47;;;-2.62;73.27
66385;BME280;53426;55.872;37.462;2023-02-12T03:59:18;98422.63;;;-2.51;72.41
66385;BME280;53426;55.872;37.462;2023-02-12T04:01:44;98442.44;;;-2.50;72.93
66385;BME280;53426;55.872;37.462;2023-02-12T04:04:10;98410.97;;;-2.60;72.07
66385;BME280;53426;55.872;37.462;2023-02-12T04:06:42;98435.91;;;-2.57;72.24
66385;BME280;53426;55.872;37.462;2023-02-12T04:09:11;98428.47;;;-2.65;71.92
66385;BME280;53426;55.872;37.462;2023-02-12T04:14:44;98469.88;;;-2.63;71.77
66385;BME280;53426;55.872;37.462;2023-02-12T04:17:45;98470.78;;;-2.64;71.85
66385;BME280;53426;55.872;37.462;2023-02-12T04:25:52;98490.03;;;-2.70;71.31
66385;BME280;53426;55.872;37.462;2023-02-12T04:28:32;98500.56;;;-2.73;71.06
66385;BME280;53426;55.872;37.462;2023-02-12T04:31:14;98501.69;;;-2.78;70.49
66385;BME280;53426;55.872;37.462;2023-02-12T04:33:47;98508.63;;;-2.79;70.58
66385;BME280;53426;55.872;37.462;2023-02-12T04:37:37;98521.47;;;-2.77;70.61
66385;BME280;53426;55.872;37.462;2023-02-12T04:39:36;98520.44;;;-2.73;70.44
66385;BME280;53426;55.872;37.462;2023-02-12T04:42:05;98532.56;;;-2.74;69.74
66385;BME280;53426;55.872;37.462;2023-02-12T04:44:33;98534.38;;;-2.76;69.83
66385;BME280;53426;55.872;37.462;2023-02-12T04:46:59;98544.50;;;-2.71;69.81
66385;BME280;53426;55.872;37.462;2023-02-12T04:49:26;98556.56;;;-2.70;69.46
66385;BME280;53426;55.872;37.462;2023-02-12T04:51:52;98542.91;;;-2.74;69.56
66385;BME280;53426;55.872;37.462;2023-02-12T04:54:20;98560.97;;;-2.72;69.59
66385;BME280;53426;55.872;37.462;2023-02-12T04:56:49;98562.28;;;-2.82;69.82
66385;BME280;53426;55.872;37.462;2023-02-12T04:59:16;98576.94;;;-2.81;69.89
66385;BME280;53426;55.872;37.462;2023-02-12T05:01:42;98580.38;;;-2.81;69.55
66385;BME280;53426;55.872;37.462;2023-02-12T05:04:13;98590.31;;;-2.72;70.06
66385;BME280;53426;55.872;37.462;2023-02-12T05:06:44;98595.63;;;-2.75;69.70
66385;BME280;53426;55.872;37.462;2023-02-12T05:09:15;98599.81;;;-2.72;69.73
66385;BME280;53426;55.872;37.462;2023-02-12T05:11:42;98598.44;;;-2.79;69.66
66385;BME280;53426;55.872;37.462;2023-02-12T05:14:11;98587.94;;;-2.95;70.08
66385;BME280;53426;55.872;37.462;2023-02-12T05:16:37;98601.31;;;-2.85;70.39
66385;BME280;53426;55.872;37.462;2023-02-12T05:19:03;98619.56;;;-2.88;70.25
66385;BME280;53426;55.872;37.462;2023-02-12T05:21:31;98640.16;;;-2.85;70.39
66385;BME280;53426;55.872;37.462;2023-02-12T05:23:57;98642.75;;;-2.85;70.41
66385;BME280;53426;55.872;37.462;2023-02-12T05:26:25;98656.81;;;-2.91;70.25
66385;BME280;53426;55.872;37.462;2023-02-12T05:28:51;98651.69;;;-2.92;70.27
66385;BME280;53426;55.872;37.462;2023-02-12T05:31:43;98644.59;;;-2.89;70.43
66385;BME280;53426;55.872;37.462;2023-02-12T05:35:20;98659.44;;;-2.92;70.06
66385;BME280;53426;55.872;37.462;2023-02-12T05:37:47;98673.78;;;-2.84;70.10
66385;BME280;53426;55.872;37.462;2023-02-12T05:40:19;98677.38;;;-2.88;69.90
66385;BME280;53426;55.872;37.462;2023-02-12T05:42:45;98678.22;;;-2.87;70.16
66385;BME280;53426;55.872;37.462;2023-02-12T05:45:12;98684.50;;;-2.93;69.88
66385;BME280;53426;55.872;37.462;2023-02-12T05:47:38;98687.16;;;-2.95;69.58
66385;BME280;53426;55.872;37.462;2023-02-12T05:50:04;98668.38;;;-3.00;69.31
66385;BME280;53426;55.872;37.462;2023-02-12T05:52:39;98697.81;;;-3.01;69.18
66385;BME280;53426;55.872;37.462;2023-02-12T05:55:05;98697.66;;;-2.98;69.54
66385;BME280;53426;55.872;37.462;2023-02-12T05:57:33;98704.78;;;-3.03;68.89
66385;BME280;53426;55.872;37.462;2023-02-12T06:00:00;98707.44;;;-3.04;68.80
66385;BME280;53426;55.872;37.462;2023-02-12T06:02:26;98689.75;;;-3.15;69.16
66385;BME280;53426;55.872;37.462;2023-02-12T06:05:06;98716.38;;;-3.11;68.93
66385;BME280;53426;55.872;37.462;2023-02-12T06:07:35;98736.75;;;-3.04;69.12
66385;BME280;53426;55.872;37.462;2023-02-12T06:10:01;98729.78;;;-3.02;68.84
66385;BME280;53426;55.872;37.462;2023-02-12T06:12:28;98737.50;;;-3.00;68.80
66385;BME280;53426;55.872;37.462;2023-02-12T06:14:54;98750.09;;;-2.92;68.37
66385;BME280;53426;55.872;37.462;2023-02-12T06:17:20;98753.28;;;-2.86;68.13
66385;BME280;53426;55.872;37.462;2023-02-12T06:19:46;98768.88;;;-2.87;68.02
66385;BME280;53426;55.872;37.462;2023-02-12T06:22:14;98765.63;;;-2.92;67.92
66385;BME280;53426;55.872;37.462;2023-02-12T06:24:43;98777.75;;;-2.93;67.88
66385;BME280;53426;55.872;37.462;2023-02-12T06:27:12;98780.34;;;-2.93;67.93
66385;BME280;53426;55.872;37.462;2023-02-12T06:29:38;98784.16;;;-3.02;67.41
66385;BME280;53426;55.872;37.462;2023-02-12T06:32:04;98794.63;;;-3.05;67.46
66385;BME280;53426;55.872;37.462;2023-02-12T06:34:31;98805.84;;;-3.04;67.51
66385;BME280;53426;55.872;37.462;2023-02-12T06:36:58;98817.88;;;-3.03;67.48
66385;BME280;53426;55.872;37.462;2023-02-12T06:39:23;98823.19;;;-3.06;67.92
66385;BME280;53426;55.872;37.462;2023-02-12T06:41:49;98827.00;;;-2.95;67.38
66385;BME280;53426;55.872;37.462;2023-02-12T06:44:15;98835.72;;;-2.96;67.07
66385;BME280;53426;55.872;37.462;2023-02-12T06:46:42;98834.41;;;-3.06;67.17
66385;BME280;53426;55.872;37.462;2023-02-12T06:49:11;98842.09;;;-3.04;66.41
66385;BME280;53426;55.872;37.462;2023-02-12T06:51:37;98847.88;;;-2.98;66.90
66385;BME280;53426;55.872;37.462;2023-02-12T06:54:12;98846.47;;;-2.84;66.87
66385;BME280;53426;55.872;37.462;2023-02-12T06:56:38;98837.38;;;-2.95;65.79
66385;BME280;53426;55.872;37.462;2023-02-12T06:59:04;98844.91;;;-2.88;65.82
66385;BME280;53426;55.872;37.462;2023-02-12T07:01:30;98850.31;;;-2.95;65.61
66385;BME280;53426;55.872;37.462;2023-02-12T07:03:58;98859.78;;;-2.93;65.41
66385;BME280;53426;55.872;37.462;2023-02-12T07:06:26;98868.63;;;-2.99;65.07
66385;BME280;53426;55.872;37.462;2023-02-12T07:08:53;98881.25;;;-2.90;65.01
66385;BME280;53426;55.872;37.462;2023-02-12T07:11:22;98883.34;;;-3.00;64.90
66385;BME280;53426;55.872;37.462;2023-02-12T07:13:49;98871.78;;;-2.91;64.87
66385;BME280;53426;55.872;37.462;2023-02-12T07:16:15;98882.78;;;-2.86;64.41
66385;BME280;53426;55.872;37.462;2023-02-12T07:18:43;98877.91;;;-2.93;64.40
66385;BME280;53426;55.872;37.462;2023-02-12T07:21:10;98893.88;;;-2.82;63.76
66385;BME280;53426;55.872;37.462;2023-02-12T07:23:37;98886.75;;;-2.77;63.59
66385;BME280;53426;55.872;37.462;2023-02-12T07:26:06;98891.69;;;-2.71;63.72
66385;BME280;53426;55.872;37.462;2023-02-12T07:28:32;98899.69;;;-2.77;63.09
66385;BME280;53426;55.872;37.462;2023-02-12T07:31:10;98906.88;;;-2.62;63.36
66385;BME280;53426;55.872;37.462;2023-02-12T07:33:37;98907.13;;;-2.68;63.11
66385;BME280;53426;55.872;37.462;2023-02-12T07:36:05;98889.53;;;-3.04;63.53
66385;BME280;53426;55.872;37.462;2023-02-12T07:38:31;98912.44;;;-2.93;63.81
66385;BME280;53426;55.872;37.462;2023-02-12T07:41:09;98900.97;;;-2.87;63.85
66385;BME280;53426;55.872;37.462;2023-02-12T07:43:38;98905.63;;;-2.96;63.57
66385;BME280;53426;55.872;37.462;2023-02-12T07:46:16;98928.69;;;-2.68;63.33
66385;BME280;53426;55.872;37.462;2023-02-12T07:48:44;98942.59;;;-2.70;63.13
66385;BME280;53426;55.872;37.462;2023-02-12T07:51:20;98944.53;;;-2.75;63.11
66385;BME280;53426;55.872;37.462;2023-02-12T07:57:05;98955.84;;;-2.78;62.70
66385;BME280;53426;55.872;37.462;2023-02-12T07:59:30;98954.94;;;-2.77;63.14
66385;BME280;53426;55.872;37.462;2023-02-12T08:01:56;98950.75;;;-2.79;62.80
66385;BME280;53426;55.872;37.462;2023-02-12T08:04:24;98958.94;;;-2.68;62.62
66385;BME280;53426;55.872;37.462;2023-02-12T08:06:59;98945.06;;;-2.89;61.97
66385;BME280;53426;55.872;37.462;2023-02-12T08:09:25;98979.72;;;-2.70;62.87
66385;BME280;53426;55.872;37.462;2023-02-12T08:11:52;98958.19;;;-2.93;61.79
66385;BME280;53426;55.872;37.462;2023-02-12T08:14:20;98983.41;;;-2.75;62.08
66385;BME280;53426;55.872;37.462;2023-02-12T08:16:47;98986.13;;;-2.78;62.00
66385;BME280;53426;55.872;37.462;2023-02-12T08:19:19;98982.75;;;-2.80;61.81
66385;BME280;53426;55.872;37.462;2023-02-12T08:21:53;99000.88;;;-2.80;61.86
66385;BME280;53426;55.872;37.462;2023-02-12T08:24:19;99003.09;;;-2.71;61.65
66385;BME280;53426;55.872;37.462;2023-02-12T08:26:46;99002.06;;;-2.67;61.53
66385;BME280;53426;55.872;37.462;2023-02-12T08:29:15;99010.88;;;-2.71;61.49
66385;BME280;53426;55.872;37.462;2023-02-12T08:31:47;99010.56;;;-2.64;61.33
66385;BME280;53426;55.872;37.462;2023-02-12T08:34:27;99033.34;;;-2.50;61.36
66385;BME280;53426;55.872;37.462;2023-02-12T08:36:55;99017.78;;;-2.50;60.16
66385;BME280;53426;55.872;37.462;2023-02-12T08:39:23;99023.63;;;-2.45;60.30
66385;BME280;53426;55.872;37.462;2023-02-12T08:41:50;99024.06;;;-2.56;60.49
66385;BME280;53426;55.872;37.462;2023-02-12T08:44:16;99038.34;;;-2.45;60.06
66385;BME280;53426;55.872;37.462;2023-02-12T08:46:53;99033.72;;;-2.37;59.72
66385;BME280;53426;55.872;37.462;2023-02-12T08:49:22;99042.81;;;-2.27;59.37
66385;BME280;53426;55.872;37.462;2023-02-12T08:51:51;99029.78;;;-2.26;58.38
66385;BME280;53426;55.872;37.462;2023-02-12T08:54:20;99039.28;;;-2.25;58.47
66385;BME280;53426;55.872;37.462;2023-02-12T08:56:46;99036.31;;;-1.95;57.84
66385;BME280;53426;55.872;37.462;2023-02-12T08:59:15;99054.28;;;-1.91;57.03
66385;BME280;53426;55.872;37.462;2023-02-12T09:05:08;99039.69;;;-1.73;56.64
66385;BME280;53426;55.872;37.462;2023-02-12T09:07:34;99054.22;;;-1.69;57.05
66385;BME280;53426;55.872;37.462;2023-02-12T09:10:00;99039.31;;;-1.84;57.56
66385;BME280;53426;55.872;37.462;2023-02-12T09:12:30;99028.63;;;-1.77;57.25
66385;BME280;53426;55.872;37.462;2023-02-12T09:14:56;99019.97;;;-1.97;56.38
66385;BME280;53426;55.872;37.462;2023-02-12T09:17:22;99079.22;;;-1.87;56.64
66385;BME280;53426;55.872;37.462;2023-02-12T09:19:52;99046.53;;;-1.71;55.43
66385;BME280;53426;55.872;37.462;2023-02-12T09:22:18;99069.28;;;-1.37;54.69
66385;BME280;53426;55.872;37.462;2023-02-12T09:24:44;99074.72;;;-0.83;54.45
66385;BME280;53426;55.872;37.462;2023-02-12T09:27:10;99063.53;;;-0.86;54.13
66385;BME280;53426;55.872;37.462;2023-02-12T09:29:38;99088.03;;;-0.91;54.31
66385;BME280;53426;55.872;37.462;2023-02-12T09:32:40;99087.28;;;-0.74;55.18
66385;BME280;53426;55.872;37.462;2023-02-12T09:35:08;99094.81;;;-1.07;55.30
66385;BME280;53426;55.872;37.462;2023-02-12T09:37:37;99058.03;;;-1.17;54.65
66385;BME280;53426;55.872;37.462;2023-02-12T09:40:06;99089.34;;;-1.40;55.27
66385;BME280;53426;55.872;37.462;2023-02-12T09:43:02;99095.56;;;-1.04;55.98
66385;BME280;53426;55.872;37.462;2023-02-12T09:46:16;99099.16;;;-0.88;55.00
66385;BME280;53426;55.872;37.462;2023-02-12T09:49:09;99079.78;;;-0.07;54.51
66385;BME280;53426;55.872;37.462;2023-02-12T09:51:41;99070.31;;;1.42;51.95
66385;BME280;53426;55.872;37.462;2023-02-12T09:54:14;99069.13;;;2.25;48.29
66385;BME280;53426;55.872;37.462;2023-02-12T09:57:16;99097.25;;;1.74;49.90
66385;BME280;53426;55.872;37.462;2023-02-12T09:59:48;99073.00;;;1.56;48.51
66385;BME280;53426;55.872;37.462;2023-02-12T10:02:18;99106.66;;;0.97;49.33
66385;BME280;53426;55.872;37.462;2023-02-12T10:04:46;99108.00;;;0.36;50.77
66385;BME280;53426;55.872;37.462;2023-02-12T10:13:44;99122.84;;;2.44;48.90
66385;BME280;53426;55.872;37.462;2023-02-12T10:22:17;99122.31;;;0.11;51.80
66385;BME280;53426;55.872;37.462;2023-02-12T10:27:39;99147.75;;;0.57;51.13
66385;BME280;53426;55.872;37.462;2023-02-12T10:30:16;99138.53;;;0.33;51.18
66385;BME280;53426;55.872;37.462;2023-02-12T10:32:45;99134.97;;;0.53;51.25
66385;BME280;53426;55.872;37.462;2023-02-12T10:35:17;99143.88;;;1.16;49.52
66385;BME280;53426;55.872;37.462;2023-02-12T10:38:06;99150.81;;;2.13;48.52
66385;BME280;53426;55.872;37.462;2023-02-12T10:40:43;99151.25;;;2.50;47.19
66385;BME280;53426;55.872;37.462;2023-02-12T10:43:11;99159.38;;;2.15;47.36
66385;BME280;53426;55.872;37.462;2023-02-12T10:45:40;99171.09;;;1.92;47.90
66385;BME280;53426;55.872;37.462;2023-02-12T10:54:35;99157.50;;;1.21;49.04
66385;BME280;53426;55.872;37.462;2023-02-12T10:57:18;99177.47;;;1.71;50.04
66385;BME280;53426;55.872;37.462;2023-02-12T10:59:47;99165.97;;;1.90;47.82
66385;BME280;53426;55.872;37.462;2023-02-12T11:02:27;99167.06;;;1.38;49.37
66385;BME280;53426;55.872;37.462;2023-02-12T11:04:55;99181.72;;;0.73;49.63
66385;BME280;53426;55.872;37.462;2023-02-12T11:07:22;99169.38;;;-0.13;50.44
66385;BME280;53426;55.872;37.462;2023-02-12T11:09:50;99186.22;;;-0.59;51.75
66385;BME280;53426;55.872;37.462;2023-02-12T11:14:54;99204.47;;;-0.99;52.53
66385;BME280;53426;55.872;37.462;2023-02-12T11:17:29;99206.16;;;-1.18;53.38
66385;BME280;53426;55.872;37.462;2023-02-12T11:22:34;99223.53;;;-0.60;53.51
66385;BME280;53426;55.872;37.462;2023-02-12T11:25:03;99226.00;;;-0.18;53.28
66385;BME280;53426;55.872;37.462;2023-02-12T11:27:33;99229.16;;;0.79;50.81
66385;BME280;53426;55.872;37.462;2023-02-12T11:30:20;99223.59;;;0.87;50.76
66385;BME280;53426;55.872;37.462;2023-02-12T11:32:46;99236.28;;;0.40;51.49
66385;BME280;53426;55.872;37.462;2023-02-12T11:35:20;99241.03;;;0.13;52.85
66385;BME280;53426;55.872;37.462;2023-02-12T11:37:57;99228.94;;;-0.44;53.07
66385;BME280;53426;55.872;37.462;2023-02-12T11:40:30;99247.78;;;-0.20;52.71
66385;BME280;53426;55.872;37.462;2023-02-12T11:43:02;99239.59;;;-0.50;53.69
66385;BME280;53426;55.872;37.462;2023-02-12T11:45:36;99252.81;;;-0.55;54.48
66385;BME280;53426;55.872;37.462;2023-02-12T11:48:17;99255.91;;;-0.87;54.39
66385;BME280;53426;55.872;37.462;2023-02-12T11:50:48;99263.78;;;-1.31;55.11
66385;BME280;53426;55.872;37.462;2023-02-12T11:53:41;99278.84;;;-1.39;55.30
66385;BME280;53426;55.872;37.462;2023-02-12T11:56:11;99260.06;;;-1.45;55.20
66385;BME280;53426;55.872;37.462;2023-02-12T11:58:38;99287.66;;;-1.43;55.39
66385;BME280;53426;55.872;37.462;2023-02-12T12:01:20;99289.47;;;-1.45;55.96
66385;BME280;53426;55.872;37.462;2023-02-12T12:03:59;99307.09;;;-1.53;55.83
66385;BME280;53426;55.872;37.462;2023-02-12T12:06:38;99280.53;;;-2.04;56.27
66385;BME280;53426;55.872;37.462;2023-02-12T12:09:16;99300.75;;;-1.91;57.22
66385;BME280;53426;55.872;37.462;2023-02-12T12:14:52;99312.94;;;-2.16;57.48
66385;BME280;53426;55.872;37.462;2023-02-12T12:17:52;99313.75;;;-2.14;57.42
66385;BME280;53426;55.872;37.462;2023-02-12T12:20:44;99330.38;;;-2.20;57.51
66385;BME280;53426;55.872;37.462;2023-02-12T12:23:18;99328.78;;;-2.24;57.95
66385;BME280;53426;55.872;37.462;2023-02-12T12:25:48;99345.94;;;-2.20;57.87
66385;BME280;53426;55.872;37.462;2023-02-12T12:28:31;99352.56;;;-2.13;58.89
66385;BME280;53426;55.872;37.462;2023-02-12T12:31:05;99352.22;;;-2.27;58.41
66385;BME280;53426;55.872;37.462;2023-02-12T12:33:43;99354.72;;;-2.48;59.19
66385;BME280;53426;55.872;37.462;2023-02-12T12:41:37;99361.53;;;-2.21;59.05
66385;BME280;53426;55.872;37.462;2023-02-12T12:46:53;99371.56;;;-2.35;59.01
66385;BME280;53426;55.872;37.462;2023-02-12T12:49:30;99367.91;;;-2.30;58.29
66385;BME280;53426;55.872;37.462;2023-02-12T13:00:59;99376.06;;;-2.67;58.93
66385;BME280;53426;55.872;37.462;2023-02-12T13:06:35;99398.19;;;-2.83;59.25
66385;BME280;53426;55.872;37.462;2023-02-12T13:17:07;99416.25;;;-3.08;59.92
66385;BME280;53426;55.872;37.462;2023-02-12T13:25:12;99422.84;;;-2.98;59.52
66385;BME280;53426;55.872;37.462;2023-02-12T13:27:42;99422.13;;;-3.03;60.00
66385;BME280;53426;55.872;37.462;2023-02-12T13:32:41;99417.69;;;-2.99;59.75
66385;BME280;53426;55.872;37.462;2023-02-12T13:35:16;99409.38;;;-3.09;59.83
66385;BME280;53426;55.872;37.462;2023-02-12T13:37:50;99414.47;;;-3.06;59.88
66385;BME280;53426;55.872;37.462;2023-02-12T13:40:22;99436.34;;;-3.16;60.41
66385;BME280;53426;55.872;37.462;2023-02-12T13:54:16;99440.66;;;-3.44;60.99
66385;BME280;53426;55.872;37.462;2023-02-12T13:56:56;99446.59;;;-3.41;61.59
66385;BME280;53426;55.872;37.462;2023-02-12T14:02:04;99430.81;;;-3.61;61.66
66385;BME280;53426;55.872;37.462;2023-02-12T14:04:38;99448.13;;;-3.64;61.95
66385;BME280;53426;55.872;37.462;2023-02-12T14:07:09;99454.38;;;-3.71;62.23
66385;BME280;53426;55.872;37.462;2023-02-12T14:12:16;99451.97;;;-3.77;62.44
66385;BME280;53426;55.872;37.462;2023-02-12T14:15:10;99462.47;;;-3.84;62.59
66385;BME280;53426;55.872;37.462;2023-02-12T14:18:03;99463.50;;;-3.89;62.83
66385;BME280;53426;55.872;37.462;2023-02-12T14:20:32;99459.84;;;-4.14;63.10
66385;BME280;53426;55.872;37.462;2023-02-12T14:28:52;99478.97;;;-4.20;63.68
66385;BME280;53426;55.872;37.462;2023-02-12T14:31:29;99492.69;;;-4.18;64.23
66385;BME280;53426;55.872;37.462;2023-02-12T14:36:35;99497.97;;;-4.23;64.33
66385;BME280;53426;55.872;37.462;2023-02-12T14:44:45;99518.03;;;-4.32;64.70
66385;BME280;53426;55.872;37.462;2023-02-12T14:47:48;99529.25;;;-4.33;64.69
66385;BME280;53426;55.872;37.462;2023-02-12T14:50:44;99541.59;;;-4.44;65.02
66385;BME280;53426;55.872;37.462;2023-02-12T14:53:41;99541.56;;;-4.43;65.41
66385;BME280;53426;55.872;37.462;2023-02-12T14:56:20;99547.63;;;-4.45;65.76
66385;BME280;53426;55.872;37.462;2023-02-12T14:58:52;99548.63;;;-4.51;65.94
66385;BME280;53426;55.872;37.462;2023-02-12T15:01:26;99551.22;;;-4.51;64.87
66385;BME280;53426;55.872;37.462;2023-02-12T15:03:58;99555.53;;;-4.51;65.87
66385;BME280;53426;55.872;37.462;2023-02-12T15:06:42;99543.72;;;-4.63;65.69
66385;BME280;53426;55.872;37.462;2023-02-12T15:09:38;99561.66;;;-4.55;65.98
66385;BME280;53426;55.872;37.462;2023-02-12T15:15:14;99559.34;;;-4.68;66.14
66385;BME280;53426;55.872;37.462;2023-02-12T15:20:49;99558.53;;;-4.70;66.26
66385;BME280;53426;55.872;37.462;2023-02-12T15:23:40;99575.53;;;-4.59;66.46
66385;BME280;53426;55.872;37.462;2023-02-12T15:26:13;99579.13;;;-4.67;66.50
66385;BME280;53426;55.872;37.462;2023-02-12T15:28:49;99576.53;;;-4.67;66.65
66385;BME280;53426;55.872;37.462;2023-02-12T15:31:32;99553.63;;;-4.80;66.75
66385;BME280;53426;55.872;37.462;2023-02-12T15:34:05;99580.00;;;-4.68;66.87
66385;BME280;53426;55.872;37.462;2023-02-12T15:36:37;99575.72;;;-4.69;66.73
66385;BME280;53426;55.872;37.462;2023-02-12T15:39:13;99580.88;;;-4.69;66.62
66385;BME280;53426;55.872;37.462;2023-02-12T15:41:48;99567.16;;;-4.69;66.77
66385;BME280;53426;55.872;37.462;2023-02-12T15:49:29;99582.72;;;-4.74;66.87